Time;durP1;ratioP1;P1;durP2;ratioP2;P2;SDS_P1;SDS_P2;PMS_P1;PMS_P2;Temp;Humidity;BMP_temperature;BMP_pressure;BME280_temperature;BME280_humidity;BME280_pressure;Samples;Min_cycle;Max_cycle;Signal;HPM_P1;HPM_P2
2021/09/13 00:00:59;;;;;;;11.52;7.40;;;16.80;99.90;;;;;;5069511;28;20741;-56
2021/09/13 00:03:25;;;;;;;11.38;7.47;;;16.90;99.90;;;;;;5070232;28;20384;-57
2021/09/13 00:05:50;;;;;;;11.77;7.50;;;16.90;99.90;;;;;;5070360;28;20384;-57
2021/09/13 00:08:16;;;;;;;11.13;6.78;;;16.90;99.90;;;;;;5069201;28;20468;-57
2021/09/13 00:10:43;;;;;;;10.68;7.10;;;16.90;99.90;;;;;;5069599;28;20380;-57
2021/09/13 00:13:09;;;;;;;11.97;7.30;;;16.80;99.90;;;;;;5069400;28;20469;-57
2021/09/13 00:15:36;;;;;;;13.40;7.32;;;16.80;99.90;;;;;;5069871;28;20380;-57
2021/09/13 00:18:02;;;;;;;9.88;6.47;;;16.90;99.90;;;;;;5069158;28;20450;-57
2021/09/13 00:20:28;;;;;;;11.07;7.22;;;16.90;99.90;;;;;;5070112;28;20422;-56
2021/09/13 00:22:53;;;;;;;10.40;6.70;;;16.80;99.90;;;;;;5069769;28;20394;-56
2021/09/13 00:25:19;;;;;;;10.60;7.00;;;16.70;99.90;;;;;;5069072;28;20368;-56
2021/09/13 00:27:45;;;;;;;13.00;6.97;;;16.70;99.90;;;;;;5069973;28;20372;-57
2021/09/13 00:30:11;;;;;;;12.10;7.88;;;16.80;99.90;;;;;;5069215;28;20375;-57
2021/09/13 00:32:37;;;;;;;12.40;7.75;;;16.70;99.90;;;;;;5069612;28;20413;-57
2021/09/13 00:35:03;;;;;;;9.82;6.95;;;16.80;99.90;;;;;;5068812;28;20419;-56
2021/09/13 00:37:28;;;;;;;10.70;7.80;;;16.80;99.90;;;;;;5069606;28;20483;-57
2021/09/13 00:39:56;;;;;;;10.80;7.68;;;16.80;99.90;;;;;;5069398;28;20468;-57
2021/09/13 00:42:21;;;;;;;13.57;7.85;;;16.70;99.90;;;;;;5069105;28;20388;-57
2021/09/13 00:44:54;;;;;;;14.52;7.80;;;16.70;99.90;;;;;;5069556;28;20380;-57
2021/09/13 00:47:20;;;;;;;12.30;7.60;;;16.50;99.90;;;;;;5068905;28;20403;-58
2021/09/13 00:49:47;;;;;;;13.65;7.57;;;16.50;99.90;;;;;;5069356;28;20457;-58
2021/09/13 00:52:14;;;;;;;11.70;7.10;;;17.60;99.90;;;;;;5067426;28;20384;-57
2021/09/13 00:54:40;;;;;;;11.10;7.35;;;16.50;99.90;;;;;;5069291;28;20411;-57
2021/09/13 00:57:06;;;;;;;12.15;8.50;;;16.50;99.90;;;;;;5068531;28;20386;-57
2021/09/13 00:59:32;;;;;;;12.90;8.43;;;16.50;99.90;;;;;;5069396;28;20387;-58
2021/09/13 01:01:58;;;;;;;12.40;7.97;;;16.40;99.90;;;;;;5068581;28;20372;-55
2021/09/13 01:04:24;;;;;;;12.68;7.22;;;16.40;99.90;;;;;;5068741;28;20737;-56
2021/09/13 01:06:49;;;;;;;11.83;8.00;;;16.40;99.90;;;;;;5068990;28;21086;-56
2021/09/13 01:09:16;;;;;;;12.57;8.47;;;16.30;99.90;;;;;;5068399;28;20449;-57
2021/09/13 01:11:44;;;;;;;14.65;8.77;;;16.20;99.90;;;;;;5069882;28;20403;-58
2021/09/13 01:14:11;;;;;;;14.30;8.30;;;16.20;99.90;;;;;;5068356;28;20407;-58
2021/09/13 01:16:37;;;;;;;11.25;8.27;;;16.20;99.90;;;;;;5068494;28;20743;-56
2021/09/13 01:19:02;;;;;;;12.90;8.27;;;16.20;99.90;;;;;;5068669;28;20388;-56
2021/09/13 01:21:31;;;;;;;11.60;8.27;;;16.20;99.90;;;;;;5068668;28;20390;-57
2021/09/13 01:23:56;;;;;;;11.50;8.13;;;16.20;99.90;;;;;;5069118;28;20414;-57
2021/09/13 01:26:22;;;;;;;14.13;8.43;;;16.10;99.90;;;;;;5068390;28;20426;-57
2021/09/13 01:28:48;;;;;;;12.17;8.00;;;16.10;99.90;;;;;;5068855;28;20772;-57
2021/09/13 01:31:14;;;;;;;12.30;9.00;;;16.10;99.90;;;;;;5067976;28;20383;-57
2021/09/13 01:33:39;;;;;;;11.53;8.40;;;16.10;99.90;;;;;;5069010;28;20403;-57
2021/09/13 01:36:05;;;;;;;14.97;8.73;;;16.00;99.90;;;;;;5068104;28;20384;-57
2021/09/13 01:38:32;;;;;;;14.48;8.27;;;16.00;99.90;;;;;;5069255;28;20461;-57
2021/09/13 01:40:58;;;;;;;12.90;8.50;;;16.00;99.90;;;;;;5069011;28;20400;-58
2021/09/13 01:43:24;;;;;;;12.02;8.27;;;16.10;99.90;;;;;;5068083;28;20383;-57
2021/09/13 01:45:49;;;;;;;12.20;8.30;;;16.10;99.90;;;;;;5068677;28;20378;-58
2021/09/13 01:48:15;;;;;;;11.80;8.60;;;16.10;99.90;;;;;;5068052;28;20394;-57
2021/09/13 01:50:41;;;;;;;13.20;8.13;;;16.00;99.90;;;;;;5067193;28;20874;-58
2021/09/13 01:53:07;;;;;;;13.23;7.73;;;15.90;99.90;;;;;;5067605;28;20407;-56
2021/09/13 01:55:32;;;;;;;11.93;8.00;;;15.80;99.90;;;;;;5068926;28;20730;-56
2021/09/13 01:57:58;;;;;;;11.23;7.80;;;15.80;99.90;;;;;;5068566;28;20383;-58
2021/09/13 02:00:24;;;;;;;11.65;7.50;;;15.80;99.90;;;;;;5068298;28;20836;-55
2021/09/13 02:02:49;;;;;;;12.50;8.30;;;15.70;99.90;;;;;;5068816;28;20392;-57
2021/09/13 02:05:15;;;;;;;11.63;8.17;;;15.70;99.90;;;;;;5067655;28;20383;-56
2021/09/13 02:07:41;;;;;;;13.90;8.45;;;15.60;99.90;;;;;;5068573;28;20384;-56
2021/09/13 02:10:07;;;;;;;13.20;7.65;;;15.60;99.90;;;;;;5067891;28;20407;-56
2021/09/13 02:12:33;;;;;;;13.10;8.80;;;15.60;99.90;;;;;;5068820;28;20445;-57
2021/09/13 02:14:58;;;;;;;11.00;8.30;;;15.60;99.90;;;;;;5071027;28;20794;-57
2021/09/13 02:17:24;;;;;;;10.90;8.10;;;15.60;99.90;;;;;;5071582;28;20407;-56
2021/09/13 02:19:50;;;;;;;13.80;9.40;;;15.60;99.90;;;;;;5072289;28;20380;-56
2021/09/13 02:22:16;;;;;;;11.83;8.40;;;15.60;99.90;;;;;;5071497;28;20459;-56
2021/09/13 02:24:43;;;;;;;12.38;8.65;;;15.70;99.90;;;;;;5072280;28;20437;-56
2021/09/13 02:27:09;;;;;;;12.63;9.00;;;15.60;99.90;;;;;;5071777;28;20395;-56
2021/09/13 02:29:35;;;;;;;13.37;9.10;;;15.70;99.90;;;;;;5072120;28;20873;-56
2021/09/13 02:32:01;;;;;;;12.02;7.80;;;15.60;99.90;;;;;;5071462;28;20380;-56
2021/09/13 02:34:27;;;;;;;12.35;8.25;;;15.60;99.90;;;;;;5071555;28;20485;-56
2021/09/13 02:36:53;;;;;;;10.90;7.65;;;15.60;99.90;;;;;;5072120;28;20386;-58
2021/09/13 02:39:19;;;;;;;12.20;8.23;;;15.60;99.90;;;;;;5070971;28;20702;-56
2021/09/13 02:41:44;;;;;;;11.30;8.10;;;15.50;99.90;;;;;;5071787;28;20467;-57
2021/09/13 02:44:10;;;;;;;13.30;8.90;;;15.40;99.90;;;;;;5071648;28;20753;-56
2021/09/13 02:46:36;;;;;;;12.27;8.80;;;15.40;99.90;;;;;;5072078;28;20395;-56
2021/09/13 02:49:01;;;;;;;14.97;9.17;;;15.40;99.90;;;;;;5071439;28;20433;-56
2021/09/13 02:51:27;;;;;;;12.80;8.48;;;15.40;99.90;;;;;;5071724;28;20455;-56
2021/09/13 02:53:52;;;;;;;13.70;9.60;;;15.30;99.90;;;;;;5071563;28;20529;-57
2021/09/13 02:56:18;;;;;;;14.47;8.33;;;15.40;99.90;;;;;;5070643;28;20845;-56
2021/09/13 02:58:44;;;;;;;13.70;9.23;;;15.50;99.90;;;;;;5071981;28;20414;-57
2021/09/13 03:01:10;;;;;;;12.20;8.82;;;15.60;99.90;;;;;;5070953;28;20941;-56
2021/09/13 03:03:36;;;;;;;12.80;8.50;;;15.60;99.90;;;;;;5071670;28;20376;-57
2021/09/13 03:06:02;;;;;;;11.37;8.00;;;15.70;99.90;;;;;;5071302;28;20388;-56
2021/09/13 03:08:27;;;;;;;12.35;8.60;;;15.60;99.90;;;;;;5070923;28;20463;-57
2021/09/13 03:10:53;;;;;;;13.47;8.70;;;15.60;99.90;;;;;;5071271;28;20399;-57
2021/09/13 03:13:19;;;;;;;12.53;8.20;;;15.50;99.90;;;;;;5070741;28;20940;-57
2021/09/13 03:15:44;;;;;;;13.52;8.45;;;15.40;99.90;;;;;;5069870;28;20492;-58
2021/09/13 03:18:10;;;;;;;14.80;9.00;;;15.30;99.90;;;;;;5070020;28;20411;-56
2021/09/13 03:20:36;;;;;;;12.48;9.18;;;15.40;99.90;;;;;;5071437;28;20580;-56
2021/09/13 03:23:02;;;;;;;14.30;8.97;;;15.30;99.90;;;;;;5070532;28;20488;-56
2021/09/13 03:25:28;;;;;;;13.60;8.52;;;15.10;99.90;;;;;;5070560;28;20386;-56
2021/09/13 03:27:54;;;;;;;12.97;9.10;;;15.10;99.90;;;;;;5070950;28;20379;-57
2021/09/13 03:30:20;;;;;;;12.73;9.70;;;15.20;99.90;;;;;;5070107;28;21060;-56
2021/09/13 03:32:45;;;;;;;13.80;9.80;;;15.20;99.90;;;;;;5070775;28;20383;-56
2021/09/13 03:35:11;;;;;;;17.20;10.10;;;15.30;99.90;;;;;;5070376;28;20399;-58
2021/09/13 03:37:37;;;;;;;14.57;9.30;;;15.20;99.90;;;;;;5070886;28;20380;-57
2021/09/13 03:40:04;;;;;;;15.20;9.67;;;15.30;99.90;;;;;;5070285;28;20380;-56
2021/09/13 03:42:30;;;;;;;14.70;9.10;;;15.30;99.90;;;;;;5070720;28;20414;-58
2021/09/13 03:44:56;;;;;;;13.30;8.53;;;15.40;99.90;;;;;;5069370;28;20390;-57
2021/09/13 03:47:21;;;;;;;14.70;8.77;;;15.60;99.90;;;;;;5069714;28;21070;-57
2021/09/13 03:49:47;;;;;;;13.77;9.20;;;15.50;99.90;;;;;;5069371;28;20792;-57
2021/09/13 03:52:13;;;;;;;12.73;8.93;;;15.50;99.90;;;;;;5069890;28;20407;-57
2021/09/13 03:54:39;;;;;;;14.93;8.52;;;15.60;99.90;;;;;;5070284;28;20510;-56
2021/09/13 03:57:06;;;;;;;12.20;7.88;;;15.80;99.90;;;;;;5069721;28;20478;-56
2021/09/13 03:59:32;;;;;;;13.02;8.10;;;15.80;99.90;;;;;;5070391;28;20450;-56
2021/09/13 04:01:58;;;;;;;13.65;7.80;;;15.80;99.90;;;;;;5069164;28;20399;-57
2021/09/13 04:04:26;;;;;;;12.55;7.57;;;15.90;99.90;;;;;;5066864;28;21006;-57
2021/09/13 04:06:57;;;;;;;12.65;7.95;;;16.00;99.90;;;;;;5067275;28;20812;-56
2021/09/13 04:11:57;;;;;;;12.20;8.20;;;16.20;99.90;;;;;;5062615;28;20427;-56
2021/09/13 04:14:26;;;;;;;12.60;7.80;;;16.20;99.90;;;;;;5069321;28;20411;-56
2021/09/13 04:16:52;;;;;;;12.10;7.70;;;16.30;99.90;;;;;;5069972;28;20487;-56
2021/09/13 04:19:18;;;;;;;13.45;7.97;;;16.20;99.90;;;;;;5069584;28;20391;-55
2021/09/13 04:21:45;;;;;;;12.77;8.00;;;16.10;99.90;;;;;;5070086;28;20471;-56
2021/09/13 04:24:10;;;;;;;14.27;8.38;;;16.00;99.90;;;;;;5069497;28;20865;-56
2021/09/13 04:26:36;;;;;;;13.68;8.70;;;16.10;99.90;;;;;;5065439;28;20448;-56
2021/09/13 04:29:03;;;;;;;11.40;8.10;;;16.10;99.90;;;;;;5051044;28;20389;-56
2021/09/13 04:31:29;;;;;;;14.55;8.10;;;16.00;99.90;;;;;;5049243;28;20382;-56
2021/09/13 04:33:55;;;;;;;13.85;9.15;;;16.00;99.90;;;;;;5049360;28;20767;-56
2021/09/13 04:36:21;;;;;;;13.23;8.70;;;16.00;99.90;;;;;;5048639;28;20407;-56
2021/09/13 04:38:47;;;;;;;12.80;7.90;;;15.90;99.90;;;;;;5049329;28;20434;-56
2021/09/13 04:41:13;;;;;;;13.50;8.60;;;15.90;99.90;;;;;;5048652;28;20381;-56
2021/09/13 04:43:39;;;;;;;12.30;8.70;;;15.90;99.90;;;;;;5049806;28;20528;-56
2021/09/13 04:46:05;;;;;;;13.80;8.38;;;16.00;99.90;;;;;;5049008;28;20477;-56
2021/09/13 04:48:31;;;;;;;11.18;7.80;;;16.00;99.90;;;;;;5052892;28;20488;-56
2021/09/13 04:50:56;;;;;;;12.60;8.43;;;16.00;99.90;;;;;;5058468;28;20387;-55
2021/09/13 04:53:22;;;;;;;13.13;8.02;;;16.00;99.90;;;;;;5048795;28;20500;-56
2021/09/13 04:55:48;;;;;;;12.00;7.20;;;16.00;99.90;;;;;;5049701;28;20473;-56
2021/09/13 04:58:13;;;;;;;11.50;7.70;;;16.00;99.90;;;;;;5060595;28;20405;-57
2021/09/13 05:00:40;;;;;;;10.73;7.80;;;16.10;99.90;;;;;;5059519;28;20397;-56
2021/09/13 05:03:06;;;;;;;11.27;7.55;;;16.20;99.90;;;;;;5063477;28;20441;-55
2021/09/13 05:05:32;;;;;;;11.95;7.70;;;16.30;99.90;;;;;;5068738;28;20848;-56
2021/09/13 05:07:57;;;;;;;12.85;8.00;;;16.40;99.90;;;;;;5064715;28;20400;-56
2021/09/13 05:10:23;;;;;;;12.30;8.00;;;16.40;99.90;;;;;;5048788;28;20400;-56
2021/09/13 05:12:49;;;;;;;12.60;7.30;;;16.40;99.90;;;;;;5048998;28;20468;-56
2021/09/13 05:15:15;;;;;;;13.57;7.23;;;16.40;99.90;;;;;;5048430;28;20389;-53
2021/09/13 05:17:40;;;;;;;11.75;7.30;;;16.50;99.90;;;;;;5048779;28;20415;-54
2021/09/13 05:20:07;;;;;;;11.35;7.82;;;16.50;99.90;;;;;;5062076;28;20474;-54
2021/09/13 05:22:33;;;;;;;11.02;7.30;;;16.50;99.90;;;;;;5069348;28;20422;-54
2021/09/13 05:24:58;;;;;;;12.90;7.60;;;16.40;99.90;;;;;;5069326;28;20387;-54
2021/09/13 05:27:24;;;;;;;10.80;7.80;;;16.40;99.90;;;;;;5068673;28;20376;-54
2021/09/13 05:29:49;;;;;;;12.50;8.20;;;16.50;99.90;;;;;;5069243;28;20392;-54
2021/09/13 05:32:15;;;;;;;13.17;7.80;;;16.50;99.90;;;;;;5065647;28;20470;-54
2021/09/13 05:34:41;;;;;;;13.35;7.60;;;16.40;99.90;;;;;;5059551;28;20417;-54
2021/09/13 05:37:07;;;;;;;11.13;7.80;;;16.50;99.90;;;;;;5067186;28;20387;-55
2021/09/13 05:39:32;;;;;;;13.43;7.80;;;16.60;99.90;;;;;;5069604;28;20458;-54
2021/09/13 05:41:58;;;;;;;12.48;7.55;;;16.60;99.90;;;;;;5068765;28;20376;-54
2021/09/13 05:44:24;;;;;;;10.47;7.40;;;16.60;99.90;;;;;;5068491;28;20649;-54
2021/09/13 05:46:51;;;;;;;10.97;7.67;;;16.70;99.90;;;;;;5068925;28;20908;-54
2021/09/13 05:49:17;;;;;;;10.38;7.20;;;16.90;99.90;;;;;;5061732;28;20401;-54
2021/09/13 05:51:45;;;;;;;13.63;8.07;;;16.90;99.90;;;;;;5073131;28;20392;-54
2021/09/13 05:54:12;;;;;;;12.77;7.75;;;16.80;99.90;;;;;;5071899;28;20947;-54
2021/09/13 05:56:38;;;;;;;12.25;8.00;;;16.80;99.90;;;;;;5072640;28;20403;-53
2021/09/13 05:59:04;;;;;;;15.75;8.18;;;16.80;99.90;;;;;;5072173;28;20885;-55
2021/09/13 06:01:30;;;;;;;12.40;7.67;;;16.90;99.90;;;;;;5072355;28;20394;-54
2021/09/13 06:03:55;;;;;;;11.40;7.47;;;17.10;99.90;;;;;;5072398;28;20915;-54
2021/09/13 06:06:21;;;;;;;11.10;7.38;;;17.30;99.90;;;;;;5071575;28;20386;-55
2021/09/13 06:08:46;;;;;;;12.43;7.20;;;17.80;99.90;;;;;;5071015;28;20395;-54
2021/09/13 06:11:12;;;;;;;9.30;6.60;;;18.70;99.90;;;;;;5071580;28;20418;-54
2021/09/13 06:13:40;;;;;;;11.13;6.10;;;19.70;99.90;;;;;;5072499;28;20900;-55
2021/09/13 06:16:08;;;;;;;12.60;6.83;;;20.70;99.90;;;;;;5071814;28;20403;-55
2021/09/13 06:18:35;;;;;;;10.23;6.47;;;21.20;99.90;;;;;;5072814;28;20419;-55
2021/09/13 06:21:01;;;;;;;9.93;6.20;;;20.90;99.90;;;;;;5072339;28;20921;-55
2021/09/13 06:23:26;;;;;;;12.05;6.80;;;20.70;99.90;;;;;;5072001;28;20493;-55
2021/09/13 06:25:52;;;;;;;10.57;5.97;;;21.10;99.90;;;;;;5072614;28;20410;-55
2021/09/13 06:28:19;;;;;;;10.25;5.72;;;21.80;99.90;;;;;;5070906;28;20404;-55
2021/09/13 06:30:46;;;;;;;11.57;7.03;;;22.60;99.90;;;;;;5072015;28;20384;-55
2021/09/13 06:33:12;;;;;;;9.47;5.60;;;23.30;99.90;;;;;;5071547;28;20514;-55
2021/09/13 06:35:37;;;;;;;12.27;5.90;;;23.50;99.90;;;;;;5071872;28;20470;-55
2021/09/13 06:38:03;;;;;;;10.90;5.97;;;24.10;99.90;;;;;;5072052;28;20438;-55
2021/09/13 06:40:29;;;;;;;9.30;5.95;;;25.00;99.90;;;;;;5071704;28;20368;-55
2021/09/13 06:42:55;;;;;;;11.82;6.53;;;25.70;99.90;;;;;;5072243;28;20782;-53
2021/09/13 06:45:23;;;;;;;11.40;7.17;;;26.40;99.90;;;;;;5071231;28;20467;-55
2021/09/13 06:47:49;;;;;;;10.40;6.55;;;25.60;99.90;;;;;;5072617;28;20387;-56
2021/09/13 06:50:20;;;;;;;10.88;6.82;;;25.80;99.90;;;;;;5071440;28;20376;-55
2021/09/13 06:52:48;;;;;;;13.43;7.25;;;25.60;99.90;;;;;;5072194;28;20387;-55
2021/09/13 06:55:13;;;;;;;10.90;6.25;;;25.70;99.90;;;;;;5071603;28;20486;-56
2021/09/13 06:57:39;;;;;;;10.17;7.00;;;26.00;99.90;;;;;;5072049;28;20391;-55
2021/09/13 07:00:09;;;;;;;11.50;7.03;;;26.40;99.90;;;;;;5070644;28;20392;-53
2021/09/13 07:02:37;;;;;;;10.85;7.30;;;26.90;99.90;;;;;;5072057;28;20391;-53
2021/09/13 07:05:04;;;;;;;13.65;7.70;;;26.50;99.90;;;;;;5071240;28;20881;-53
2021/09/13 07:07:29;;;;;;;12.48;7.68;;;27.30;99.90;;;;;;5071265;28;20376;-53
2021/09/13 07:09:55;;;;;;;10.43;7.43;;;27.50;99.90;;;;;;5071660;28;20372;-53
2021/09/13 07:12:21;;;;;;;13.55;9.98;;;28.00;99.90;;;;;;5071286;28;20399;-54
2021/09/13 07:14:47;;;;;;;14.63;10.68;;;27.90;99.90;;;;;;5072006;28;20404;-53
2021/09/13 07:17:13;;;;;;;13.03;8.90;;;27.60;99.90;;;;;;5070857;28;20753;-54
2021/09/13 07:19:39;;;;;;;10.85;8.65;;;27.90;99.40;;;;;;5072127;28;20391;-53
2021/09/13 07:22:05;;;;;;;11.82;10.18;;;28.00;99.40;;;;;;5070965;28;20800;-54
2021/09/13 07:24:30;;;;;;;13.23;9.90;;;28.60;97.70;;;;;;5071334;28;20383;-54
2021/09/13 07:26:56;;;;;;;12.40;10.02;;;28.60;98.00;;;;;;5071617;28;20466;-54
2021/09/13 07:29:22;;;;;;;11.43;9.52;;;29.00;96.90;;;;;;5070895;28;20415;-54
2021/09/13 07:31:47;;;;;;;10.38;7.68;;;29.10;95.60;;;;;;5071213;28;20924;-55
2021/09/13 07:34:13;;;;;;;13.37;7.63;;;29.80;94.10;;;;;;5070662;28;20415;-56
2021/09/13 07:36:38;;;;;;;12.03;6.40;;;29.60;94.40;;;;;;5070663;28;20372;-56
2021/09/13 07:39:05;;;;;;;11.20;6.80;;;29.70;92.60;;;;;;5071255;28;20437;-56
2021/09/13 07:41:31;;;;;;;9.65;7.05;;;29.80;92.60;;;;;;5068928;28;20396;-56
2021/09/13 07:43:56;;;;;;;15.57;6.45;;;30.30;92.20;;;;;;5071238;28;20407;-56
2021/09/13 07:46:22;;;;;;;10.88;8.80;;;30.00;91.70;;;;;;5069796;28;20448;-56
2021/09/13 07:48:48;;;;;;;9.60;6.43;;;30.00;92.10;;;;;;5071087;28;20380;-56
2021/09/13 07:51:13;;;;;;;13.30;8.17;;;31.20;87.70;;;;;;5069593;28;20380;-54
2021/09/13 07:53:39;;;;;;;12.10;7.60;;;32.20;83.80;;;;;;5070792;28;20901;-54
2021/09/13 07:56:05;;;;;;;8.90;6.30;;;32.30;80.80;;;;;;5070277;28;20410;-54
2021/09/13 07:58:30;;;;;;;10.50;6.53;;;32.10;78.20;;;;;;5070543;28;20448;-54
2021/09/13 08:00:56;;;;;;;10.90;6.70;;;31.50;80.30;;;;;;5070190;28;20376;-54
2021/09/13 08:03:22;;;;;;;9.98;5.60;;;31.70;79.50;;;;;;5069570;28;20387;-56
2021/09/13 08:05:47;;;;;;;10.43;6.73;;;31.50;79.10;;;;;;5070320;28;20376;-57
2021/09/13 08:08:13;;;;;;;11.50;6.20;;;31.30;80.10;;;;;;5069457;28;20415;-57
2021/09/13 08:10:39;;;;;;;9.63;6.07;;;31.40;80.10;;;;;;5070497;28;20773;-57
2021/09/13 08:13:05;;;;;;;8.20;5.70;;;31.70;78.40;;;;;;5069228;28;20531;-54
2021/09/13 08:15:31;;;;;;;10.85;5.15;;;32.00;77.20;;;;;;5069417;28;20406;-54
2021/09/13 08:17:57;;;;;;;8.15;5.03;;;33.40;72.70;;;;;;5069474;28;20403;-54
2021/09/13 08:20:23;;;;;;;14.63;5.70;;;34.20;68.70;;;;;;5069524;28;20738;-54
2021/09/13 08:22:48;;;;;;;8.50;5.00;;;34.00;68.20;;;;;;5069633;28;20792;-54
2021/09/13 08:25:14;;;;;;;10.57;5.00;;;33.50;68.80;;;;;;5069374;28;20376;-55
2021/09/13 08:27:40;;;;;;;7.10;4.43;;;33.50;67.90;;;;;;5070008;28;20387;-55
2021/09/13 08:30:06;;;;;;;7.15;4.40;;;33.50;66.60;;;;;;5069881;28;20403;-55
2021/09/13 08:32:32;;;;;;;9.52;5.25;;;33.40;66.00;;;;;;5069148;28;20876;-55
2021/09/13 08:34:57;;;;;;;6.80;4.33;;;33.80;65.00;;;;;;5069757;28;20458;-55
2021/09/13 08:37:24;;;;;;;7.70;4.30;;;34.50;63.00;;;;;;5068299;28;20409;-55
2021/09/13 08:39:49;;;;;;;8.10;5.10;;;34.40;61.50;;;;;;5070020;28;20490;-56
2021/09/13 08:42:16;;;;;;;10.13;5.60;;;34.70;61.50;;;;;;5068937;28;20825;-56
2021/09/13 08:44:45;;;;;;;9.35;4.72;;;35.40;59.70;;;;;;5069746;28;20889;-56
2021/09/13 08:47:27;;;;;;;6.93;3.92;;;35.70;58.00;;;;;;5068825;28;20455;-56
2021/09/13 08:50:00;;;;;;;7.97;4.50;;;36.80;55.20;;;;;;5069743;28;20376;-56
2021/09/13 08:52:27;;;;;;;7.00;4.10;;;36.80;54.10;;;;;;5068616;28;20371;-56
2021/09/13 08:54:53;;;;;;;7.35;3.80;;;36.50;53.40;;;;;;5069682;28;20415;-56
2021/09/13 08:57:19;;;;;;;8.70;4.10;;;35.90;54.10;;;;;;5067473;28;20380;-56
2021/09/13 08:59:48;;;;;;;7.88;4.00;;;36.50;52.80;;;;;;5069607;28;20386;-56
2021/09/13 09:02:14;;;;;;;6.47;4.10;;;36.80;51.40;;;;;;5068615;28;20416;-56
2021/09/13 09:04:44;;;;;;;7.15;4.00;;;36.80;50.90;;;;;;5069380;28;20437;-56
2021/09/13 09:07:18;;;;;;;7.45;4.07;;;37.10;50.90;;;;;;5069020;28;20376;-57
2021/09/13 09:09:44;;;;;;;7.32;3.60;;;36.20;51.90;;;;;;5069454;28;20457;-56
2021/09/13 09:12:11;;;;;;;6.60;3.33;;;35.60;51.60;;;;;;5069008;28;20429;-56
2021/09/13 09:14:39;;;;;;;7.30;3.70;;;35.60;52.30;;;;;;5069344;28;20494;-56
2021/09/13 09:17:19;;;;;;;7.90;7.10;;;34.40;53.30;;;;;;5069188;28;20415;-56
2021/09/13 09:19:45;;;;;;;10.70;7.28;;;33.80;55.10;;;;;;5069290;28;20455;-56
2021/09/13 09:22:40;;;;;;;8.98;4.05;;;34.20;54.30;;;;;;5068602;28;20559;-56
2021/09/13 09:25:10;;;;;;;7.15;4.57;;;35.00;54.00;;;;;;5066718;28;20402;-57
2021/09/13 09:27:56;;;;;;;7.38;4.30;;;36.10;51.50;;;;;;5068872;28;20407;-57
2021/09/13 09:30:32;;;;;;;8.10;4.83;;;36.30;51.20;;;;;;5068505;28;20482;-57
2021/09/13 09:33:07;;;;;;;8.15;4.60;;;36.50;50.70;;;;;;5068905;28;20874;-56
2021/09/13 09:35:41;;;;;;;8.25;5.30;;;36.70;50.30;;;;;;5068692;28;20471;-56
2021/09/13 09:38:35;;;;;;;7.25;5.03;;;37.50;49.70;;;;;;5069121;28;20387;-56
2021/09/13 09:41:15;;;;;;;6.43;3.50;;;36.70;50.50;;;;;;5069212;28;20810;-56
2021/09/13 09:43:56;;;;;;;7.07;3.90;;;36.80;49.40;;;;;;5069351;28;20375;-56
2021/09/13 09:46:23;;;;;;;6.30;3.70;;;36.10;50.40;;;;;;5068409;28;20410;-56
2021/09/13 09:48:49;;;;;;;7.78;4.15;;;35.70;50.50;;;;;;5069124;28;20459;-56
2021/09/13 09:51:26;;;;;;;8.05;4.10;;;35.60;51.20;;;;;;5068556;28;20491;-57
2021/09/13 09:53:52;;;;;;;6.70;4.20;;;36.00;51.10;;;;;;5068404;28;20411;-56
2021/09/13 09:56:18;;;;;;;7.78;4.00;;;36.20;49.80;;;;;;5066803;28;20730;-56
2021/09/13 09:59:02;;;;;;;7.78;4.35;;;35.60;50.50;;;;;;5069008;28;20425;-56
2021/09/13 10:01:37;;;;;;;7.50;4.50;;;35.80;50.30;;;;;;5067851;28;20398;-57
2021/09/13 10:04:15;;;;;;;7.30;3.90;;;35.80;50.70;;;;;;5068960;28;20457;-56
2021/09/13 10:06:42;;;;;;;6.78;4.10;;;36.00;50.80;;;;;;5067562;28;20762;-56
2021/09/13 10:09:12;;;;;;;6.90;4.05;;;36.20;50.00;;;;;;5068725;28;20405;-56
2021/09/13 10:11:40;;;;;;;7.30;4.30;;;36.00;50.40;;;;;;5068918;28;20380;-56
2021/09/13 10:14:07;;;;;;;9.00;4.33;;;36.00;50.20;;;;;;5068529;28;20407;-56
2021/09/13 10:16:40;;;;;;;8.13;5.57;;;35.40;50.90;;;;;;5068058;28;20431;-56
2021/09/13 10:19:06;;;;;;;8.35;6.40;;;35.40;50.00;;;;;;5069140;28;20450;-56
2021/09/13 10:21:32;;;;;;;7.90;6.07;;;35.00;52.40;;;;;;5067875;28;20398;-54
2021/09/13 10:24:00;;;;;;;7.80;5.60;;;34.60;51.60;;;;;;5069079;28;20474;-54
2021/09/13 10:26:25;;;;;;;6.70;4.10;;;34.60;51.90;;;;;;5067659;28;20387;-56
2021/09/13 10:29:03;;;;;;;7.00;3.90;;;34.70;51.80;;;;;;5068630;28;20764;-55
2021/09/13 10:31:53;;;;;;;7.63;4.07;;;34.60;52.30;;;;;;5068159;28;20430;-56
2021/09/13 10:34:24;;;;;;;6.85;4.05;;;34.90;51.60;;;;;;5067303;28;20749;-56
2021/09/13 10:36:58;;;;;;;9.57;4.70;;;35.20;52.30;;;;;;5071986;28;20886;-56
2021/09/13 10:39:46;;;;;;;7.80;3.80;;;36.10;50.10;;;;;;5071506;28;20465;-56
2021/09/13 10:42:27;;;;;;;8.38;6.05;;;35.60;50.70;;;;;;5071730;28;20769;-56
2021/09/13 10:45:24;;;;;;;9.57;7.38;;;35.50;51.60;;;;;;5072053;28;20383;-55
2021/09/13 10:47:51;;;;;;;8.48;7.20;;;34.90;51.90;;;;;;5072417;28;20707;-55
2021/09/13 10:50:24;;;;;;;9.25;7.63;;;34.10;52.60;;;;;;5070708;28;20805;-56
2021/09/13 10:52:55;;;;;;;8.68;7.63;;;34.20;53.10;;;;;;5071769;28;20411;-55
2021/09/13 10:55:26;;;;;;;9.00;6.70;;;34.00;52.90;;;;;;5071118;28;20858;-56
2021/09/13 10:58:03;;;;;;;8.02;6.75;;;34.10;54.30;;;;;;5071647;28;20448;-55
2021/09/13 11:00:41;;;;;;;7.80;6.65;;;34.20;53.60;;;;;;5071022;28;20412;-56
2021/09/13 11:03:22;;;;;;;9.63;6.90;;;34.10;53.20;;;;;;5072019;28;20382;-55
2021/09/13 11:08:48;;;;;;;10.25;7.00;;;33.30;54.70;;;;;;5071301;28;20384;-55
2021/09/13 11:11:16;;;;;;;7.85;6.43;;;33.30;54.90;;;;;;5070756;28;20384;-56
2021/09/13 11:13:44;;;;;;;11.10;6.97;;;33.20;55.10;;;;;;5070792;28;20408;-55
2021/09/13 11:16:14;;;;;;;8.63;6.85;;;32.70;55.90;;;;;;5071639;28;20474;-55
2021/09/13 11:18:42;;;;;;;7.88;7.07;;;32.80;55.50;;;;;;5069988;28;20408;-55
2021/09/13 11:21:22;;;;;;;8.15;6.85;;;32.80;56.20;;;;;;5071518;28;20860;-55
2021/09/13 11:23:54;;;;;;;9.07;7.55;;;33.00;56.10;;;;;;5071405;28;20388;-55
2021/09/13 11:26:35;;;;;;;10.00;7.03;;;32.60;56.30;;;;;;5070510;28;20380;-55
2021/09/13 11:29:05;;;;;;;10.50;7.20;;;32.10;56.40;;;;;;5071511;28;20390;-55
2021/09/13 11:31:33;;;;;;;9.10;7.10;;;31.20;58.90;;;;;;5070314;28;20388;-55
2021/09/13 11:34:00;;;;;;;9.80;8.00;;;30.70;59.80;;;;;;5070720;28;20761;-55
2021/09/13 11:36:28;;;;;;;8.80;7.80;;;30.90;59.10;;;;;;5070461;28;20394;-55
2021/09/13 11:39:02;;;;;;;8.90;8.00;;;30.60;60.10;;;;;;5070738;28;20387;-55
2021/09/13 11:41:28;;;;;;;10.60;8.55;;;30.40;60.90;;;;;;5070108;28;20384;-55
2021/09/13 11:44:04;;;;;;;10.60;9.70;;;30.20;60.30;;;;;;5071039;28;20395;-55
2021/09/13 11:46:31;;;;;;;9.85;7.80;;;30.00;61.70;;;;;;5069815;28;20400;-55
2021/09/13 11:49:14;;;;;;;10.52;9.52;;;29.50;64.30;;;;;;5070556;28;20415;-55
2021/09/13 11:51:59;;;;;;;10.02;9.00;;;29.50;64.00;;;;;;5070773;28;20384;-55
2021/09/13 11:54:25;;;;;;;10.57;8.97;;;29.50;62.90;;;;;;5069866;28;20408;-55
2021/09/13 11:56:55;;;;;;;8.30;7.40;;;29.20;62.60;;;;;;5070307;28;20390;-55
2021/09/13 11:59:29;;;;;;;10.40;9.27;;;29.00;64.00;;;;;;5069693;28;20745;-55
2021/09/13 12:02:00;;;;;;;9.32;8.35;;;28.90;64.20;;;;;;5070737;28;20376;-55
2021/09/13 12:04:27;;;;;;;10.50;8.95;;;29.10;63.80;;;;;;5069335;28;20379;-55
2021/09/13 12:07:07;;;;;;;8.60;7.70;;;29.30;65.10;;;;;;5070562;28;20367;-55
2021/09/13 12:09:34;;;;;;;7.93;6.90;;;29.50;64.90;;;;;;5069088;28;20384;-55
2021/09/13 12:12:01;;;;;;;8.37;7.10;;;29.70;62.80;;;;;;5070383;28;20379;-55
2021/09/13 12:14:27;;;;;;;9.20;8.20;;;29.60;63.30;;;;;;5069425;28;20408;-55
2021/09/13 12:17:08;;;;;;;8.25;6.97;;;29.70;62.90;;;;;;5070315;28;20391;-55
2021/09/13 12:19:35;;;;;;;9.37;7.60;;;29.80;62.70;;;;;;5069275;28;20927;-55
2021/09/13 12:22:03;;;;;;;8.88;7.30;;;29.80;62.60;;;;;;5070306;28;20372;-55
2021/09/13 12:24:29;;;;;;;10.30;9.40;;;30.00;63.00;;;;;;5069525;28;20395;-55
2021/09/13 12:26:54;;;;;;;8.93;8.02;;;30.10;61.30;;;;;;5070224;28;20380;-55
2021/09/13 12:29:20;;;;;;;10.80;8.80;;;30.10;60.80;;;;;;5069573;28;20406;-55
2021/09/13 12:31:46;;;;;;;7.70;6.88;;;30.10;61.90;;;;;;5069837;28;20907;-55
2021/09/13 12:34:11;;;;;;;9.77;7.38;;;30.10;62.90;;;;;;5069481;28;20502;-55
2021/09/13 12:36:37;;;;;;;9.30;7.10;;;29.50;61.90;;;;;;5069555;28;20729;-55
2021/09/13 12:39:08;;;;;;;9.10;8.25;;;29.80;60.80;;;;;;5069662;28;20388;-55
2021/09/13 12:41:36;;;;;;;9.30;8.40;;;30.00;60.90;;;;;;5069097;28;20382;-55
2021/09/13 12:44:25;;;;;;;9.13;7.35;;;29.80;61.90;;;;;;5069681;28;20388;-55
2021/09/13 12:46:54;;;;;;;8.07;7.27;;;29.70;62.50;;;;;;5069728;28;20383;-55
2021/09/13 12:49:20;;;;;;;8.05;7.25;;;29.90;61.80;;;;;;5068838;28;20375;-55